Home   Weather   Göteborg   Past weeks
Flag for Sweden

Past Weather in Göteborg, Sweden — Yesterday and Last 2 Weeks

Currently: 46 °F. Scattered clouds. (Weather station: Gothenburg / Landvetter, Sweden). See more current weather

Past Weather in Göteborg — Graph

°F

Göteborg Temperature Yesterday

Maximum temperature yesterday: 61 °F (at 2:20 pm)
Minimum temperature yesterday: 46 °F (at 11:50 pm)
Average temperature yesterday: 54 °F

High & Low Weather Summary for the Past Weeks

 TemperatureHumidityPressure
High73 °F (Jun 3, 3:20 pm)100% (Jun 1, 4:50 am)30.33 "Hg (Jun 1, 4:50 am)
Low46 °F (Jun 1, 3:50 am)35% (Jun 4, 11:20 am)29.71 "Hg (Jun 12, 7:50 am)
Average59 °F68%30.10 "Hg
* Reported Jun 1 3:20 am — Jun 16 3:20 am, Göteborg. Weather by CustomWeather, © 2021

Note: Actual official high and low records may vary slightly from our data, if they occured in-between our weather recording intervals... More about our weather records

Göteborg Weather History for the Previous 24 Hours

Scroll right to see more
 ConditionsComfort  
Time TempWeatherWind HumidityBarometerVisibility
3:20 am
Wed, Jun 16
48 °FPassing clouds.7 mph87%30.04 "HgN/A
2:50 am46 °FPassing clouds.5 mph93%30.04 "HgN/A
2:20 am46 °FPassing clouds.5 mph93%30.04 "HgN/A
1:50 am46 °FPassing clouds.6 mph87%30.04 "HgN/A
1:20 am46 °FPassing clouds.7 mph87%30.07 "HgN/A
12:50 am48 °FPassing clouds.5 mph87%30.07 "HgN/A
12:20 am46 °FPassing clouds.6 mph87%30.07 "HgN/A
11:50 pm
Tue, Jun 15
46 °FPassing clouds.5 mph87%30.07 "HgN/A
11:20 pm48 °FClear.6 mph82%30.07 "Hg10 mi
10:50 pm48 °FClear.6 mph82%30.07 "Hg10 mi
10:20 pm50 °FPassing clouds.7 mph82%30.07 "HgN/A
9:50 pm52 °FPassing clouds.7 mph77%30.07 "HgN/A
9:20 pm54 °FPassing clouds.9 mph72%30.04 "HgN/A
8:50 pm54 °FPassing clouds.9 mph72%30.07 "HgN/A
8:20 pm54 °FPassing clouds.10 mph67%30.04 "HgN/A
7:50 pm55 °FPassing clouds.13 mph67%30.04 "HgN/A
7:20 pm57 °FPassing clouds.12 mph59%30.04 "HgN/A
6:50 pm57 °FPassing clouds.14 mph59%30.04 "HgN/A
6:28 pm57 °FScattered clouds.13 mph59%30.04 "HgN/A
5:50 pm57 °FPassing clouds.15 mph55%30.04 "HgN/A
5:20 pm57 °FPassing clouds.14 mph55%30.04 "HgN/A
4:50 pm57 °FScattered clouds.17 mph55%30.04 "HgN/A
4:20 pm57 °FPassing clouds.17 mph59%30.04 "HgN/A
3:50 pm57 °FScattered clouds.20 mph55%30.04 "HgN/A
3:20 pm59 °FScattered clouds.20 mph51%30.04 "HgN/A
2:50 pm59 °FScattered clouds.21 mph51%30.04 "HgN/A
2:20 pm61 °FScattered clouds.18 mph55%30.04 "HgN/A
1:50 pm59 °FScattered clouds.17 mph59%30.04 "HgN/A
1:20 pm57 °FScattered clouds.18 mph63%30.04 "HgN/A
12:50 pm57 °FScattered clouds.17 mph63%30.04 "HgN/A
12:20 pm57 °FScattered clouds.18 mph63%30.04 "HgN/A
11:50 am57 °FScattered clouds.18 mph63%30.04 "HgN/A
11:20 am57 °FScattered clouds.16 mph59%30.01 "HgN/A
10:50 am57 °FPassing clouds.18 mph59%30.01 "HgN/A
10:20 am57 °FScattered clouds.16 mph63%30.01 "HgN/A
9:50 am55 °FPartly sunny.16 mph67%30.01 "HgN/A
9:20 am54 °FScattered clouds.17 mph72%30.01 "HgN/A
8:50 am55 °FScattered clouds.15 mph67%30.01 "HgN/A
8:20 am54 °FBroken clouds.15 mph72%29.98 "HgN/A
7:50 am54 °FPartly sunny.15 mph77%29.98 "HgN/A
7:20 am54 °FPartly sunny.16 mph77%29.98 "HgN/A
6:50 am54 °FPartly sunny.14 mph77%29.98 "HgN/A
6:20 am52 °FPartly sunny.13 mph82%29.95 "HgN/A
5:50 am52 °FScattered clouds.13 mph82%29.95 "HgN/A
5:20 am50 °FScattered clouds.12 mph88%29.95 "HgN/A
4:50 am50 °FPassing clouds.12 mph82%29.95 "HgN/A
4:20 am50 °FPassing clouds.12 mph82%29.92 "HgN/A
Weather by CustomWeather, © 2021

See weather overview